Time;durP1;ratioP1;P1;durP2;ratioP2;P2;SDS_P1;SDS_P2;PMS_P1;PMS_P2;Temp;Humidity;BMP_temperature;BMP_pressure;BME280_temperature;BME280_humidity;BME280_pressure;Samples;Min_cycle;Max_cycle;Signal;HPM_P1;HPM_P2
2023/01/28 00:00:08;;;;;;;1.83;0.75;;;1.30;99.90;;;-0.49;95.40;102001.00;5076927;28;20050;-77
2023/01/28 00:02:36;;;;;;;1.83;0.73;;;1.30;99.90;;;-0.53;95.61;101990.59;5055723;28;20044;-77
2023/01/28 00:05:03;;;;;;;4.47;0.90;;;1.30;99.90;;;-0.42;94.89;101992.50;5066553;28;20150;-77
2023/01/28 00:07:29;;;;;;;4.07;0.73;;;1.30;99.90;;;-0.38;93.78;101993.97;5094546;28;20082;-76
2023/01/28 00:09:55;;;;;;;1.85;0.70;;;1.30;99.90;;;-0.44;93.81;101993.47;5063065;28;20419;-76
2023/01/28 00:12:20;;;;;;;1.90;0.70;;;1.30;99.90;;;-0.54;94.64;101987.03;5058839;28;20101;-76
2023/01/28 00:14:46;;;;;;;2.83;0.70;;;1.30;99.90;;;-0.38;93.84;101988.63;5057890;28;20025;-76
2023/01/28 00:17:14;;;;;;;5.10;0.93;;;1.30;99.90;;;-0.41;93.50;101988.84;5072803;28;20043;-77
2023/01/28 00:19:40;;;;;;;4.82;0.70;;;1.40;99.90;;;-0.49;93.05;101984.03;5059733;28;20036;-77
2023/01/28 00:22:06;;;;;;;3.22;0.77;;;1.30;99.90;;;-0.34;90.58;101988.28;5079321;28;20523;-77
2023/01/28 00:24:31;;;;;;;2.00;0.80;;;1.40;99.90;;;-0.34;89.58;101990.09;5064014;28;20068;-76
2023/01/28 00:26:57;;;;;;;5.60;1.00;;;1.40;99.90;;;-0.31;89.43;101992.56;5061052;28;20427;-76
2023/01/28 00:29:23;;;;;;;2.90;0.73;;;1.40;99.90;;;-0.32;89.38;101988.16;5072561;28;20032;-77
2023/01/28 00:31:49;;;;;;;2.13;0.95;;;1.50;99.90;;;-0.36;90.06;101990.22;5077792;28;20117;-76
2023/01/28 00:34:14;;;;;;;1.77;0.75;;;1.40;99.90;;;-0.39;90.38;101990.47;5054058;28;20049;-77
2023/01/28 00:36:41;;;;;;;2.78;0.82;;;1.40;99.90;;;-0.42;90.84;101995.19;5069098;28;20060;-77
2023/01/28 00:39:12;;;;;;;3.25;0.63;;;1.40;99.90;;;-0.36;91.01;101992.03;5059976;28;20297;-77
2023/01/28 00:41:41;;;;;;;2.80;0.80;;;1.40;99.90;;;-0.36;90.18;101989.38;5061253;28;20035;-77
2023/01/28 00:44:08;;;;;;;2.25;0.75;;;1.40;99.90;;;-0.21;84.88;101987.38;5059526;28;20036;-77
2023/01/28 00:46:35;;;;;;;1.85;0.65;;;1.50;99.90;;;-0.22;85.94;101986.53;5061477;28;20075;-77
2023/01/28 00:49:00;;;;;;;3.45;0.88;;;1.60;99.90;;;-0.19;87.17;101996.16;5055266;28;20040;-76
2023/01/28 00:51:26;;;;;;;2.05;0.75;;;1.60;99.90;;;-0.23;87.70;101998.25;5070916;28;20494;-78
2023/01/28 00:53:52;;;;;;;4.10;0.90;;;1.50;99.90;;;-0.24;88.08;101983.13;5055388;28;20052;-77
2023/01/28 00:56:18;;;;;;;3.45;0.88;;;1.60;99.90;;;-0.27;87.56;101975.25;5092211;28;20036;-77
2023/01/28 00:58:44;;;;;;;2.53;0.80;;;1.60;99.90;;;-0.27;88.18;101985.16;5059452;28;20041;-77
2023/01/28 01:01:18;;;;;;;3.20;1.00;;;1.50;99.90;;;-0.30;88.71;101996.94;5054482;28;20123;-77
2023/01/28 01:03:45;;;;;;;1.52;0.57;;;1.50;99.90;;;-0.32;89.21;101990.84;5054459;28;20037;-77
2023/01/28 01:06:14;;;;;;;1.73;0.50;;;1.50;99.90;;;-0.36;89.09;101989.38;5059924;28;20036;-77
2023/01/28 01:08:41;;;;;;;2.10;0.55;;;1.50;99.90;;;-0.36;88.80;101992.91;5079727;28;20041;-78
2023/01/28 01:11:10;;;;;;;3.30;0.80;;;1.50;99.90;;;-0.33;87.62;101991.81;5056392;28;20051;-77
2023/01/28 01:13:37;;;;;;;1.33;0.63;;;1.50;99.90;;;-0.35;87.32;101997.31;5087514;28;20293;-77
2023/01/28 01:16:05;;;;;;;3.15;0.85;;;1.40;99.90;;;-0.38;87.90;101985.94;5063791;28;20045;-78
2023/01/28 01:18:33;;;;;;;3.28;1.08;;;1.40;99.90;;;-0.36;88.03;101992.03;5092896;28;20036;-77
2023/01/28 01:20:59;;;;;;;3.13;0.85;;;1.40;99.90;;;-0.39;87.97;101981.53;5078610;28;20136;-77
2023/01/28 01:23:27;;;;;;;6.90;1.13;;;1.40;99.90;;;-0.38;87.21;101991.31;5086579;28;20035;-77
2023/01/28 01:25:53;;;;;;;4.90;0.95;;;1.40;99.90;;;-0.38;88.13;101993.97;5059550;28;20051;-77
2023/01/28 01:28:20;;;;;;;2.97;0.70;;;1.40;99.90;;;-0.42;89.11;101984.44;5069687;28;20431;-77
2023/01/28 01:30:47;;;;;;;2.30;0.73;;;1.40;99.90;;;-0.42;89.49;101981.78;5093045;28;20381;-77
2023/01/28 01:33:15;;;;;;;1.65;0.68;;;1.40;99.90;;;-0.48;88.55;101978.56;5091356;28;20492;-77
2023/01/28 01:35:41;;;;;;;2.58;0.60;;;1.40;99.90;;;-0.49;88.42;101982.22;5053756;28;20503;-77
2023/01/28 01:38:07;;;;;;;3.40;0.90;;;1.30;99.90;;;-0.49;88.64;101982.22;5085218;28;20036;-78
2023/01/28 01:40:33;;;;;;;2.60;0.80;;;1.30;99.90;;;-0.53;89.29;101986.09;5055927;28;20454;-77
2023/01/28 01:42:59;;;;;;;3.10;0.82;;;1.30;99.90;;;-0.55;89.80;101992.53;5054119;28;20037;-77
2023/01/28 01:45:32;;;;;;;2.25;0.73;;;1.30;99.90;;;-0.55;91.18;101997.88;5060663;28;20055;-77
2023/01/28 01:48:04;;;;;;;1.50;0.73;;;1.30;99.90;;;-0.56;90.94;101999.69;5064947;28;20044;-76
2023/01/28 01:50:38;;;;;;;3.35;0.82;;;1.20;99.90;;;-0.56;90.37;101994.34;5073678;28;20059;-77
2023/01/28 01:53:12;;;;;;;3.50;0.73;;;1.30;99.90;;;-0.55;86.84;101987.16;5053482;28;20053;-77
2023/01/28 01:55:44;;;;;;;3.60;0.80;;;1.30;99.90;;;-0.54;87.38;102000.44;5063695;28;20134;-77
2023/01/28 01:58:17;;;;;;;4.35;0.98;;;1.30;99.90;;;-0.59;88.40;101986.53;5058633;28;20036;-77
2023/01/28 02:00:43;;;;;;;3.22;0.90;;;1.30;99.90;;;-0.60;88.89;101992.84;5062167;28;20033;-77
2023/01/28 02:03:12;;;;;;;2.15;0.70;;;1.30;99.90;;;-0.57;89.73;102007.88;5058312;28;20044;-77
2023/01/28 02:05:38;;;;;;;4.70;0.82;;;1.30;99.90;;;-0.62;90.30;102003.69;5053876;28;20080;-75
2023/01/28 02:08:20;;;;;;;4.45;0.73;;;1.20;99.90;;;-0.60;87.91;102003.56;5059815;28;20117;-76
2023/01/28 02:10:59;;;;;;;3.45;0.90;;;1.20;99.90;;;-0.60;86.21;102001.75;5072257;28;20094;-76
2023/01/28 02:13:33;;;;;;;3.40;0.75;;;1.30;99.90;;;-0.55;85.67;102011.28;5057922;28;20072;-76
2023/01/28 02:16:02;;;;;;;3.00;0.82;;;1.30;99.90;;;-0.52;86.09;102008.38;5066306;28;20044;-76
2023/01/28 02:18:27;;;;;;;2.88;0.95;;;1.30;99.90;;;-0.56;85.92;102007.75;5065577;28;20029;-76
2023/01/28 02:21:24;;;;;;;3.17;0.90;;;1.30;99.90;;;-0.54;88.12;102013.84;5053784;28;20040;-77
2023/01/28 02:24:27;;;;;;;3.63;1.10;;;1.30;99.90;;;-0.55;86.24;102009.44;5053863;28;20048;-76
2023/01/28 02:27:35;;;;;;;1.80;0.70;;;1.20;99.90;;;-0.55;83.01;101998.72;5055945;28;20037;-76
2023/01/28 02:30:21;;;;;;;1.83;0.70;;;1.30;99.90;;;-0.53;85.49;102007.56;5060149;28;20082;-76
2023/01/28 02:33:03;;;;;;;3.60;0.80;;;1.30;99.90;;;-0.56;86.34;102023.00;5085841;28;20043;-76
2023/01/28 02:35:42;;;;;;;2.70;0.85;;;1.30;99.90;;;-0.59;87.70;102018.69;5061275;28;20032;-77
2023/01/28 02:38:18;;;;;;;2.42;0.82;;;1.20;99.90;;;-0.66;88.48;102009.38;5058679;28;20481;-77
2023/01/28 02:41:01;;;;;;;4.57;1.10;;;1.20;99.90;;;-0.60;86.25;102007.13;5049068;28;20544;-77
2023/01/28 02:43:44;;;;;;;1.63;0.70;;;1.20;99.90;;;-0.66;85.30;102001.34;5085095;28;20029;-77
2023/01/28 02:49:17;;;;;;;3.45;0.95;;;1.20;99.90;;;-0.60;84.28;101990.16;5055382;28;20041;-77
2023/01/28 02:51:58;;;;;;;5.40;1.00;;;1.20;99.90;;;-0.59;85.47;102002.59;5068052;28;20040;-78
2023/01/28 02:54:47;;;;;;;1.77;0.77;;;1.20;99.90;;;-0.60;85.79;101990.16;5056172;28;20039;-77
2023/01/28 02:57:23;;;;;;;3.63;0.77;;;1.20;99.90;;;-0.63;86.62;101991.25;5052795;28;20051;-77
2023/01/28 03:00:09;;;;;;;1.35;0.65;;;1.20;99.90;;;-0.69;86.98;101990.84;5063445;28;20077;-77
2023/01/28 03:02:45;;;;;;;7.00;1.02;;;1.20;99.90;;;-0.74;87.87;101993.84;5061237;28;20395;-77
2023/01/28 03:05:25;;;;;;;1.70;0.63;;;1.10;99.90;;;-0.68;87.73;101995.22;5058747;28;20040;-77
2023/01/28 03:07:52;;;;;;;2.38;0.75;;;1.10;99.90;;;-0.73;87.50;101990.19;5090692;28;20455;-77
2023/01/28 03:10:25;;;;;;;4.40;0.73;;;1.10;99.90;;;-0.75;87.18;101994.81;5082858;28;20453;-77
2023/01/28 03:39:29;;;;;;;2.50;0.75;;;1.10;99.90;;;-0.75;79.89;101968.00;5055650;28;20040;-77
2023/01/28 03:42:04;;;;;;;3.88;0.90;;;1.10;99.90;;;-0.71;79.20;101971.34;5051285;28;20039;-77
2023/01/28 03:44:52;;;;;;;1.92;0.70;;;1.10;99.90;;;-0.72;79.69;101967.78;5051005;28;20033;-77
2023/01/28 03:47:22;;;;;;;3.30;0.80;;;1.10;99.90;;;-0.69;81.07;101978.28;5079730;28;20051;-77
2023/01/28 03:49:52;;;;;;;2.05;0.90;;;1.10;99.90;;;-0.74;82.07;101988.47;5092704;28;20047;-77
2023/01/28 03:52:24;;;;;;;2.35;0.70;;;1.10;99.90;;;-0.77;85.10;101988.69;5064594;28;20052;-77
2023/01/28 03:54:51;;;;;;;2.88;0.70;;;1.10;99.90;;;-0.86;85.46;101992.88;5064952;28;20047;-77
2023/01/28 03:57:22;;;;;;;1.52;0.80;;;1.00;99.90;;;-0.86;85.65;101998.25;5084643;28;20033;-77
2023/01/28 03:59:48;;;;;;;3.40;0.90;;;1.00;99.90;;;-0.90;86.81;102000.31;5058906;28;20036;-76
2023/01/28 04:02:16;;;;;;;2.45;0.80;;;0.90;99.90;;;-0.89;86.07;101995.78;5071218;28;20345;-76
2023/01/28 04:04:42;;;;;;;3.47;1.30;;;0.90;99.90;;;-0.91;85.20;101987.88;5089813;28;20036;-76
2023/01/28 04:07:10;;;;;;;2.05;0.70;;;0.90;99.90;;;-0.89;84.63;101999.34;5078830;28;20036;-77
2023/01/28 04:09:56;;;;;;;2.92;0.70;;;1.00;99.90;;;-0.97;86.77;102007.03;5061536;28;20045;-77
2023/01/28 04:12:26;;;;;;;1.65;0.75;;;0.90;99.90;;;-0.95;86.70;102006.94;5071111;28;20103;-77
2023/01/28 04:14:53;;;;;;;1.38;0.70;;;0.90;99.90;;;-0.97;85.67;102003.50;5088121;28;20106;-77
2023/01/28 04:17:27;;;;;;;2.08;0.80;;;0.80;99.90;;;-0.93;83.92;102008.56;5104867;27;20068;-77
2023/01/28 04:19:52;;;;;;;3.08;1.13;;;0.90;99.90;;;-0.97;83.25;102004.34;5070476;28;20047;-76
2023/01/28 04:22:20;;;;;;;2.40;1.10;;;0.90;99.90;;;-1.00;81.58;102001.91;5067345;28;20521;-76
2023/01/28 04:24:45;;;;;;;1.60;0.63;;;0.90;99.90;;;-0.84;80.67;102011.56;5076417;28;20040;-76
2023/01/28 04:27:11;;;;;;;2.63;0.80;;;0.90;99.90;;;-0.83;81.35;102005.22;5069151;28;20032;-76
2023/01/28 04:29:37;;;;;;;5.32;0.90;;;1.00;99.90;;;-0.79;79.67;102002.22;5071344;28;20025;-76
2023/01/28 04:32:22;;;;;;;3.45;0.90;;;1.00;99.90;;;-0.79;79.89;102009.41;5059628;28;20064;-75
2023/01/28 04:35:04;;;;;;;1.10;0.75;;;1.00;99.90;;;-0.81;81.89;102014.00;5062098;28;20047;-76
2023/01/28 04:37:45;;;;;;;3.45;1.00;;;1.00;99.90;;;-0.91;83.83;102020.03;5058813;28;20064;-76
2023/01/28 04:40:23;;;;;;;2.55;0.82;;;0.90;99.90;;;-0.94;84.62;102030.09;5060521;28;20028;-76
2023/01/28 04:42:56;;;;;;;3.53;0.93;;;0.90;99.90;;;-0.94;85.70;102035.44;5094029;27;20040;-76
2023/01/28 04:45:34;;;;;;;2.67;1.02;;;0.90;99.90;;;-0.99;83.48;102022.38;5065095;28;20041;-75
2023/01/28 04:48:29;;;;;;;1.48;0.80;;;0.90;99.90;;;-0.97;78.28;102020.44;5042606;28;20040;-75
2023/01/28 04:51:13;;;;;;;4.32;1.13;;;0.90;99.90;;;-0.92;79.15;102017.44;5056763;28;20071;-76
2023/01/28 04:53:47;;;;;;;2.17;0.88;;;0.90;99.90;;;-0.90;79.56;102027.09;5088150;28;20094;-76
2023/01/28 04:56:28;;;;;;;2.78;0.95;;;0.90;99.90;;;-0.87;79.84;102017.97;5080904;28;20480;-76
2023/01/28 04:58:54;;;;;;;2.30;0.90;;;0.90;99.90;;;-0.89;79.47;102020.78;5077868;28;20124;-76
2023/01/28 05:01:21;;;;;;;4.15;0.90;;;0.90;99.90;;;-1.00;80.12;102014.44;5066914;28;20040;-76
2023/01/28 05:03:47;;;;;;;3.47;1.08;;;0.90;99.90;;;-0.90;81.58;102035.13;5091997;28;20032;-77
2023/01/28 05:06:20;;;;;;;4.22;0.90;;;0.90;99.90;;;-0.92;81.65;102026.34;5052703;28;20124;-77
2023/01/28 05:08:47;;;;;;;4.13;1.05;;;0.90;99.90;;;-0.92;81.86;102034.41;5054141;28;20520;-77
2023/01/28 05:11:14;;;;;;;3.28;1.40;;;0.90;99.90;;;-0.94;82.97;102030.09;5063271;28;20032;-77
2023/01/28 05:13:40;;;;;;;3.17;0.93;;;0.90;99.90;;;-0.98;82.82;102033.97;5065200;28;20491;-77
2023/01/28 05:16:08;;;;;;;;;;;0.90;99.90;;;-0.98;83.21;102031.28;5065406;28;20070;-77
2023/01/28 05:18:34;;;;;;;2.55;0.70;;;0.80;99.90;;;-0.93;84.83;102037.16;5060075;28;19968;-77
2023/01/28 05:21:15;;;;;;;4.03;1.05;;;0.90;99.90;;;-0.95;80.24;102020.34;5066653;28;20037;-77
2023/01/28 05:23:42;;;;;;;3.05;0.90;;;0.90;99.90;;;-0.96;79.91;102018.63;5053840;28;20527;-77
2023/01/28 05:26:08;;;;;;;1.95;0.90;;;0.90;99.90;;;-0.96;79.86;102026.66;5057297;28;20029;-77
2023/01/28 05:28:34;;;;;;;2.10;0.88;;;0.90;99.90;;;-0.99;81.53;102029.56;5069895;28;20040;-77
2023/01/28 05:31:08;;;;;;;4.30;1.10;;;0.80;99.90;;;-1.02;81.30;102028.81;5078039;28;20037;-77
2023/01/28 05:33:34;;;;;;;3.95;0.90;;;0.80;99.90;;;-1.00;77.48;102017.97;5060880;28;20243;-77
2023/01/28 05:36:01;;;;;;;3.95;1.15;;;0.80;99.90;;;-1.04;77.25;102014.66;5062435;28;20044;-77
2023/01/28 05:38:27;;;;;;;3.28;1.10;;;0.80;99.90;;;-1.10;78.69;102015.06;5061579;28;20438;-77
2023/01/28 05:40:54;;;;;;;4.93;1.00;;;0.80;99.90;;;-1.03;78.57;102015.50;5053402;28;20059;-77
2023/01/28 05:43:20;;;;;;;2.58;0.85;;;0.80;99.90;;;-0.96;77.98;102022.16;5056483;28;20518;-77
2023/01/28 05:46:05;;;;;;;1.85;0.85;;;0.80;99.90;;;-0.99;78.44;102011.66;5072613;28;20116;-77
2023/01/28 05:48:54;;;;;;;5.15;1.15;;;0.80;99.90;;;-1.06;80.25;102023.75;5057746;28;20072;-76
2023/01/28 05:51:39;;;;;;;3.00;1.00;;;0.80;99.90;;;-0.99;80.93;102021.53;5055237;28;20090;-76
2023/01/28 05:54:07;;;;;;;2.97;1.02;;;0.80;99.90;;;-0.99;81.72;102021.53;5053511;28;20491;-76
2023/01/28 05:56:35;;;;;;;2.53;1.10;;;0.80;99.90;;;-0.98;81.51;102017.88;5058970;28;20086;-77
2023/01/28 05:59:02;;;;;;;2.25;1.00;;;0.80;99.90;;;-0.99;80.76;102014.31;5071270;28;20024;-77
2023/01/28 06:01:29;;;;;;;2.95;1.10;;;0.80;99.90;;;-1.07;79.98;102019.38;5084848;28;20055;-77
2023/01/28 06:03:55;;;;;;;4.63;1.17;;;0.80;99.90;;;-1.13;80.62;102019.81;5069857;28;20483;-77
2023/01/28 06:06:20;;;;;;;2.22;0.95;;;0.70;99.90;;;-1.18;82.17;102028.16;5066704;28;20392;-76
2023/01/28 06:08:46;;;;;;;3.22;1.00;;;0.60;99.90;;;-1.24;82.01;102021.38;5066774;28;20472;-76
2023/01/28 06:11:18;;;;;;;2.80;0.90;;;0.60;99.90;;;-1.21;83.43;102020.34;5088051;28;20799;-75
2023/01/28 06:13:44;;;;;;;2.83;1.08;;;0.60;99.90;;;-1.20;81.13;102019.38;5058705;28;20129;-76
2023/01/28 06:16:31;;;;;;;3.58;0.93;;;0.60;99.90;;;-1.23;79.84;102019.59;5086444;28;20091;-75
2023/01/28 06:19:18;;;;;;;3.15;0.85;;;0.60;99.90;;;-1.26;80.64;102022.47;5074725;28;20033;-75
2023/01/28 06:21:44;;;;;;;1.98;0.80;;;0.50;99.90;;;-1.31;81.42;102012.94;5088960;28;20048;-78
2023/01/28 06:24:10;;;;;;;3.58;1.08;;;0.60;99.90;;;-1.13;81.59;102023.31;5063603;28;20025;-76
2023/01/28 06:26:36;;;;;;;1.10;0.75;;;0.60;99.90;;;-1.03;77.73;102019.06;5076871;28;20431;-76
2023/01/28 06:29:02;;;;;;;3.53;1.13;;;0.60;99.90;;;-1.07;76.48;102014.00;5074188;28;20044;-75
2023/01/28 06:31:27;;;;;;;2.38;1.00;;;0.70;99.90;;;-1.09;76.57;102022.16;5053536;28;20044;-75
2023/01/28 06:33:54;;;;;;;3.35;1.20;;;0.70;99.90;;;-1.07;76.62;102017.53;5057886;28;20033;-75
2023/01/28 06:36:20;;;;;;;2.45;1.20;;;0.70;99.90;;;-0.96;75.49;102021.31;5075302;28;20384;-76
2023/01/28 06:38:46;;;;;;;2.83;1.00;;;0.80;99.90;;;-1.05;77.08;102021.00;5053037;28;20468;-74
2023/01/28 06:41:12;;;;;;;3.80;1.13;;;0.80;99.90;;;-1.11;77.24;102018.72;5059748;28;20126;-75
2023/01/28 06:43:37;;;;;;;2.97;1.05;;;0.80;99.90;;;-1.13;77.05;102022.47;5052774;28;20072;-74
2023/01/28 06:46:03;;;;;;;4.20;1.05;;;0.70;99.90;;;-1.09;78.11;102032.03;5055164;28;20048;-75
2023/01/28 06:48:29;;;;;;;2.72;0.90;;;0.70;99.90;;;-1.14;76.94;102020.78;5049855;28;20029;-78
2023/01/28 06:50:55;;;;;;;5.20;1.25;;;0.70;99.90;;;-1.17;77.02;102032.53;5056453;28;20522;-77
2023/01/28 06:53:21;;;;;;;2.95;0.90;;;0.70;99.90;;;-1.23;76.86;102024.94;5063621;28;20049;-76
2023/01/28 06:55:48;;;;;;;2.97;1.08;;;0.70;99.90;;;-1.26;76.63;102025.16;5057708;28;20041;-76
2023/01/28 06:58:13;;;;;;;4.65;1.10;;;0.60;99.90;;;-1.17;75.91;102024.50;5054012;28;20141;-77
2023/01/28 07:00:39;;;;;;;7.43;1.20;;;0.60;99.90;;;-1.27;76.22;102023.44;5058218;28;20467;-77
2023/01/28 07:03:05;;;;;;;2.25;1.08;;;0.60;99.90;;;-1.28;76.21;102024.41;5062098;28;20036;-78
2023/01/28 07:05:31;;;;;;;2.30;0.90;;;0.60;99.90;;;-1.25;76.39;102026.88;5057890;28;20029;-78
2023/01/28 07:07:57;;;;;;;3.50;0.90;;;0.60;99.90;;;-1.17;76.15;102025.38;5058155;28;20037;-78
2023/01/28 07:10:22;;;;;;;1.52;0.90;;;0.60;99.90;;;-1.27;75.98;102023.44;5061899;28;20052;-78
2023/01/28 07:12:48;;;;;;;2.53;0.98;;;0.60;99.90;;;-1.18;76.59;102023.66;5080925;28;20045;-78
2023/01/28 07:15:14;;;;;;;2.70;1.00;;;0.60;99.90;;;-1.17;75.71;102035.22;5063126;28;20503;-77
2023/01/28 07:17:41;;;;;;;3.78;1.10;;;0.70;99.90;;;-1.31;77.37;102015.63;5053623;28;20040;-78
2023/01/28 07:20:10;;;;;;;3.97;1.15;;;0.60;99.90;;;-1.27;77.75;102039.50;5050276;28;20063;-77
2023/01/28 07:22:39;;;;;;;3.70;1.08;;;0.60;99.90;;;-1.21;77.22;102028.38;5089513;28;20037;-77
2023/01/28 07:25:07;;;;;;;3.08;1.10;;;0.60;99.90;;;-1.22;76.03;102027.50;5054779;28;20128;-78
2023/01/28 07:27:33;;;;;;;4.55;1.38;;;0.60;99.90;;;-1.22;76.23;102022.13;5054043;28;20367;-78
2023/01/28 07:29:59;;;;;;;2.67;1.00;;;0.60;99.90;;;-1.24;75.92;102033.94;5061386;28;20745;-78
2023/01/28 07:32:26;;;;;;;2.22;0.98;;;0.60;99.90;;;-1.32;76.05;102027.28;5052701;28;20045;-78
2023/01/28 07:34:52;;;;;;;3.25;1.20;;;0.50;99.90;;;-1.18;74.67;102030.81;5049715;28;20053;-78
2023/01/28 07:37:19;;;;;;;2.03;1.00;;;0.60;99.90;;;-1.12;75.19;102038.44;5055441;28;20037;-78
2023/01/28 07:39:44;;;;;;;3.88;1.10;;;0.60;99.90;;;-1.23;75.73;102024.94;5051069;28;20044;-78
2023/01/28 07:42:10;;;;;;;2.80;0.98;;;0.60;99.90;;;-1.27;77.96;102036.81;5049733;28;20041;-77
2023/01/28 07:44:37;;;;;;;3.45;1.00;;;0.60;99.90;;;-1.27;79.64;102053.75;5090454;28;20029;-78
2023/01/28 07:47:05;;;;;;;5.55;1.20;;;0.60;99.90;;;-1.24;78.44;102053.53;5065117;28;20037;-78
2023/01/28 07:49:33;;;;;;;3.55;1.30;;;0.60;99.90;;;-1.25;77.83;102048.28;5061092;28;20037;-78
2023/01/28 07:51:59;;;;;;;3.72;1.35;;;0.60;99.90;;;-1.16;79.00;102048.53;5053221;28;20053;-80
2023/01/28 07:54:25;;;;;;;3.47;1.10;;;0.70;99.90;;;-1.29;76.92;102028.03;5053386;28;20645;-79
2023/01/28 07:56:51;;;;;;;3.55;1.20;;;0.70;99.90;;;-1.19;77.47;102043.38;5057007;28;20068;-80
2023/01/28 07:59:16;;;;;;;1.65;1.02;;;0.70;99.90;;;-1.11;78.68;102044.66;5059118;28;20488;-79
2023/01/28 08:01:42;;;;;;;2.10;1.00;;;0.70;99.90;;;-1.08;79.38;102058.69;5054840;28;20059;-77
2023/01/28 08:04:08;;;;;;;3.15;1.20;;;0.80;99.90;;;-0.98;78.10;102060.75;5058478;28;20430;-78
2023/01/28 08:06:36;;;;;;;2.33;1.17;;;0.80;99.90;;;-0.95;78.76;102050.66;5058645;28;20044;-79
2023/01/28 08:09:07;;;;;;;4.25;1.10;;;0.90;99.90;;;-0.91;76.56;102057.53;5055986;28;20028;-79
2023/01/28 08:11:37;;;;;;;4.13;1.27;;;0.90;99.90;;;-0.91;74.08;102043.28;5058563;28;20163;-78
2023/01/28 08:14:02;;;;;;;4.63;1.60;;;1.00;99.90;;;-0.89;73.70;102047.56;5059952;28;20037;-78
2023/01/28 08:16:29;;;;;;;3.67;1.17;;;1.00;99.90;;;-0.90;73.90;102058.38;5055495;28;20515;-78
2023/01/28 08:18:54;;;;;;;2.97;1.30;;;1.00;99.90;;;-0.93;73.56;102056.78;5055589;28;20045;-78
2023/01/28 08:21:20;;;;;;;3.08;1.20;;;1.00;99.90;;;-0.99;73.90;102073.28;5055632;28;20451;-79
2023/01/28 08:23:46;;;;;;;3.67;1.17;;;0.90;99.90;;;-0.99;73.42;102069.75;5059619;28;20072;-79
2023/01/28 08:26:12;;;;;;;4.20;1.30;;;0.90;99.90;;;-1.02;73.22;102063.66;5061793;28;20132;-78
2023/01/28 08:28:38;;;;;;;5.35;1.27;;;0.90;99.90;;;-0.92;73.91;102073.72;5061574;28;20033;-78
2023/01/28 08:31:04;;;;;;;2.88;1.38;;;1.00;99.90;;;-0.83;73.72;102073.06;5063306;28;20074;-79
2023/01/28 08:33:29;;;;;;;2.85;1.45;;;1.00;99.90;;;-0.80;73.79;102091.59;5061299;28;20059;-78
2023/01/28 08:35:55;;;;;;;3.95;1.20;;;1.10;99.90;;;-0.75;76.06;102089.50;5087717;28;20032;-78
2023/01/28 08:38:21;;;;;;;2.08;1.20;;;1.10;99.90;;;-0.62;76.45;102097.53;5055409;28;20400;-79
2023/01/28 08:40:49;;;;;;;2.08;1.20;;;1.20;99.90;;;-0.51;76.41;102086.06;5060556;28;20095;-79
2023/01/28 08:43:15;;;;;;;2.30;1.15;;;1.30;99.90;;;-0.55;77.45;102087.22;5063937;28;20059;-80
2023/01/28 08:45:41;;;;;;;3.55;1.13;;;1.30;99.90;;;-0.35;78.06;102098.34;5058823;28;20107;-79
2023/01/28 08:48:11;;;;;;;3.65;1.40;;;1.40;99.90;;;-0.32;74.18;102093.63;5063735;28;20103;-78
2023/01/28 08:50:39;;;;;;;3.50;1.50;;;1.50;99.90;;;-0.22;72.34;102095.66;5067319;28;20146;-78
2023/01/28 08:53:10;;;;;;;4.70;1.50;;;1.60;99.90;;;-0.13;72.58;102099.50;5054850;28;20037;-78
2023/01/28 08:55:36;;;;;;;7.13;1.60;;;1.70;99.90;;;-0.08;71.50;102097.34;5062557;28;20396;-79
2023/01/28 08:58:10;;;;;;;4.65;1.40;;;1.70;99.90;;;-0.13;70.04;102097.69;5054785;28;20033;-80
2023/01/28 09:00:36;;;;;;;3.15;1.30;;;1.70;99.90;;;0.02;70.09;102095.72;5063241;28;20403;-79
2023/01/28 09:03:03;;;;;;;5.40;1.30;;;1.80;99.90;;;-0.06;69.56;102107.00;5054606;28;20049;-79
2023/01/28 09:05:30;;;;;;;5.50;1.40;;;1.80;99.90;;;0.07;70.15;102114.16;5055303;28;20033;-78
2023/01/28 09:08:00;;;;;;;3.13;1.58;;;1.90;99.90;;;-0.18;71.07;102122.16;5055335;28;20037;-77
2023/01/28 09:10:26;;;;;;;7.43;1.85;;;1.70;99.90;;;-0.23;71.86;102118.06;5058775;28;20547;-76
2023/01/28 09:12:51;;;;;;;6.82;1.65;;;1.70;99.90;;;-0.11;71.50;102119.91;5058170;28;20045;-77
2023/01/28 09:15:17;;;;;;;5.97;1.65;;;1.80;99.90;;;-0.05;69.19;102115.91;5054456;28;20040;-77
2023/01/28 09:17:43;;;;;;;6.78;1.85;;;1.90;99.90;;;-0.02;69.31;102124.59;5063867;28;20040;-76
2023/01/28 09:20:11;;;;;;;4.80;1.73;;;2.00;99.90;;;-0.15;69.89;102132.66;5054582;28;20515;-76
2023/01/28 09:22:37;;;;;;;6.70;1.88;;;1.90;99.90;;;-0.17;70.07;102134.59;5054781;28;20581;-76
2023/01/28 09:25:03;;;;;;;4.00;1.75;;;1.80;99.90;;;-0.32;70.07;102139.25;5060525;28;20037;-77
2023/01/28 09:27:29;;;;;;;4.15;1.77;;;1.70;99.90;;;-0.56;70.63;102127.56;5059407;28;20083;-78
2023/01/28 09:29:54;;;;;;;3.35;1.60;;;1.50;99.90;;;-0.39;70.72;102151.38;5067014;28;20434;-78
2023/01/28 09:32:20;;;;;;;4.40;1.92;;;1.60;99.90;;;-0.37;70.27;102146.75;5059971;28;20365;-77
2023/01/28 09:34:46;;;;;;;3.35;1.60;;;1.60;99.90;;;-0.37;70.42;102151.25;5081160;28;20086;-78
2023/01/28 09:37:11;;;;;;;3.22;2.13;;;1.60;99.90;;;-0.60;70.53;102165.31;5093923;28;20036;-78
2023/01/28 09:39:37;;;;;;;6.40;1.60;;;1.40;99.90;;;-0.56;71.33;102168.63;5054947;28;20388;-78
2023/01/28 09:42:12;;;;;;;5.75;1.55;;;1.40;99.90;;;-0.54;71.73;102161.31;5065630;28;20430;-77
2023/01/28 09:45:08;;;;;;;2.35;1.10;;;1.40;99.90;;;-0.64;73.50;102160.25;5059487;28;20075;-80
2023/01/28 09:47:47;;;;;;;2.33;1.30;;;1.30;99.90;;;-0.75;72.75;102174.38;5054494;28;20045;-78
2023/01/28 09:50:22;;;;;;;6.75;1.48;;;1.20;99.90;;;-0.72;73.07;102168.81;5061242;28;20433;-78
2023/01/28 09:52:52;;;;;;;2.75;1.50;;;1.20;99.90;;;-0.74;73.79;102179.66;5053774;28;20049;-77
2023/01/28 09:55:34;;;;;;;2.65;1.55;;;1.20;99.90;;;-0.73;72.49;102173.34;5057926;28;20052;-78
2023/01/28 09:58:00;;;;;;;3.20;1.30;;;1.20;99.90;;;-0.74;73.11;102166.25;5063121;28;20040;-79
2023/01/28 10:00:44;;;;;;;9.13;1.60;;;1.20;99.90;;;-0.70;73.50;102166.88;5053876;28;20055;-77
2023/01/28 10:03:35;;;;;;;5.68;1.50;;;1.20;99.90;;;-0.66;74.56;102176.47;5054399;28;20607;-79
2023/01/28 10:06:35;;;;;;;4.20;1.52;;;1.30;99.90;;;-0.73;73.45;102183.19;5054030;28;20063;-79
2023/01/28 10:09:33;;;;;;;4.10;1.20;;;1.20;99.90;;;-0.74;72.63;102170.75;5065482;28;20029;-78
2023/01/28 10:12:40;;;;;;;2.97;1.55;;;1.20;99.90;;;-0.86;74.40;102177.78;5049283;28;20094;-75
2023/01/28 10:15:46;;;;;;;3.47;1.33;;;1.10;99.90;;;-0.81;74.45;102180.19;5061345;28;20036;-78
2023/01/28 10:18:12;;;;;;;7.03;1.58;;;1.10;99.90;;;-0.78;75.06;102164.75;5057048;28;20437;-76
2023/01/28 10:21:06;;;;;;;5.43;1.80;;;1.10;99.90;;;-0.80;74.25;102149.72;5063913;28;20035;-76
2023/01/28 10:23:57;;;;;;;3.00;1.80;;;1.10;99.90;;;-0.74;72.81;102154.66;5059504;28;20111;-78
2023/01/28 10:26:37;;;;;;;3.72;2.03;;;1.20;99.90;;;-0.67;73.02;102166.66;5068985;28;20049;-78
2023/01/28 10:29:17;;;;;;;3.65;1.92;;;1.20;99.90;;;-0.79;74.29;102164.84;5066213;28;20074;-76
2023/01/28 10:32:27;;;;;;;5.55;2.03;;;1.20;99.90;;;-0.97;75.72;102156.25;5057351;28;20041;-77
2023/01/28 10:34:53;;;;;;;4.35;2.22;;;1.00;99.90;;;-0.88;75.65;102147.56;5067067;28;20127;-78
2023/01/28 10:37:20;;;;;;;4.43;2.10;;;1.00;99.90;;;-0.80;76.54;102155.94;5065701;28;20139;-77
2023/01/28 10:39:46;;;;;;;3.35;1.60;;;1.10;99.90;;;-0.72;73.93;102150.03;5064323;28;20032;-78
2023/01/28 10:42:30;;;;;;;4.60;2.35;;;1.20;99.90;;;-0.55;73.29;102140.84;5058733;28;20056;-78
2023/01/28 10:45:33;;;;;;;3.10;1.80;;;1.30;99.90;;;-0.55;73.63;102159.59;5060031;28;20087;-78
2023/01/28 10:48:15;;;;;;;6.43;2.17;;;1.40;99.90;;;-0.48;74.56;102154.69;5062449;28;20037;-78
2023/01/28 10:51:01;;;;;;;3.67;1.95;;;1.40;99.90;;;-0.33;73.67;102155.41;5062993;28;20052;-77
2023/01/28 10:53:45;;;;;;;4.32;2.65;;;1.60;99.90;;;-0.44;73.66;102151.69;5061790;28;20512;-79
2023/01/28 10:56:27;;;;;;;7.63;2.88;;;1.50;99.90;;;-0.56;73.26;102144.47;5058385;28;20044;-78
2023/01/28 10:59:00;;;;;;;7.63;2.80;;;1.40;99.90;;;-0.30;72.94;102147.16;5059042;28;20037;-77
2023/01/28 11:01:47;;;;;;;4.75;2.55;;;1.60;99.90;;;-0.26;71.98;102150.50;5061041;28;20051;-78
2023/01/28 11:04:25;;;;;;;4.53;2.20;;;1.70;99.90;;;-0.46;71.82;102134.84;5063046;28;20031;-80
2023/01/28 11:07:18;;;;;;;6.20;2.00;;;1.60;99.90;;;-0.52;72.57;102156.75;5056478;28;20144;-77